createdAt,value
2023-02-07T00:00:20.830Z,-11.42
2023-02-07T00:02:53.113Z,-11.27
2023-02-07T00:05:23.629Z,-11.20
2023-02-07T00:07:54.279Z,-11.23
2023-02-07T00:10:25.303Z,-11.66
2023-02-07T00:12:55.936Z,-11.23
2023-02-07T00:15:26.782Z,-11.33
2023-02-07T00:17:59.044Z,-11.65
2023-02-07T00:20:29.509Z,-12.09
2023-02-07T00:22:59.895Z,-12.30
2023-02-07T00:25:30.575Z,-12.29
2023-02-07T00:28:01.204Z,-12.19
2023-02-07T00:30:31.906Z,-12.17
2023-02-07T00:33:04.025Z,-11.75
2023-02-07T00:35:34.489Z,-11.83
2023-02-07T00:38:05.035Z,-11.17
2023-02-07T00:40:35.583Z,-11.04
2023-02-07T00:43:06.174Z,-10.94
2023-02-07T00:45:37.004Z,-10.78
2023-02-07T00:48:09.455Z,-10.67
2023-02-07T00:50:40.093Z,-10.59
2023-02-07T00:53:10.614Z,-10.56
2023-02-07T00:55:41.082Z,-10.43
2023-02-07T00:58:11.559Z,-10.28
2023-02-07T01:00:42.060Z,-10.09
2023-02-07T01:03:14.250Z,-10.01
2023-02-07T01:05:45.342Z,-10.14
2023-02-07T01:08:16.047Z,-9.79
2023-02-07T01:10:47.586Z,-9.58
2023-02-07T01:13:18.931Z,-9.27
2023-02-07T01:15:50.978Z,-9.12
2023-02-07T01:18:23.152Z,-8.93
2023-02-07T01:20:53.711Z,-8.98
2023-02-07T01:23:24.131Z,-9.17
2023-02-07T01:25:55.214Z,-9.25
2023-02-07T01:28:26.014Z,-9.38
2023-02-07T01:30:56.668Z,-9.60
2023-02-07T01:33:28.855Z,-9.75
2023-02-07T01:35:59.390Z,-9.76
2023-02-07T01:38:29.869Z,-9.66
2023-02-07T01:41:00.308Z,-9.47
2023-02-07T01:43:31.129Z,-9.59
2023-02-07T01:46:01.704Z,-9.12
2023-02-07T01:48:37.004Z,-8.91
2023-02-07T01:51:10.526Z,-8.70
2023-02-07T01:53:42.968Z,-8.33
2023-02-07T01:56:30.454Z,-8.04
2023-02-07T01:59:01.341Z,-7.90
2023-02-07T02:01:31.875Z,-7.81
2023-02-07T02:04:04.043Z,-7.71
2023-02-07T02:06:35.992Z,-7.85
2023-02-07T02:09:13.589Z,-7.99
2023-02-07T02:12:09.738Z,-7.45
2023-02-07T02:14:56.218Z,-7.44
2023-02-07T02:17:34.823Z,-7.48
2023-02-07T02:20:54.944Z,-7.38
2023-02-07T02:23:31.022Z,-7.18
2023-02-07T02:26:42.848Z,-7.16
2023-02-07T02:29:48.364Z,-7.21
2023-02-07T02:32:53.815Z,-7.37
2023-02-07T02:35:34.011Z,-7.03
2023-02-07T02:38:08.298Z,-6.91
2023-02-07T02:40:47.317Z,-6.91
2023-02-07T02:43:29.345Z,-6.78
2023-02-07T02:46:04.957Z,-6.72
2023-02-07T02:48:37.370Z,-6.72
2023-02-07T02:51:09.375Z,-7.23
2023-02-07T02:53:39.990Z,-7.12
2023-02-07T02:56:45.669Z,-6.75
2023-02-07T02:59:43.832Z,-6.82
2023-02-07T03:02:24.654Z,-6.78
2023-02-07T03:05:14.902Z,-6.96
2023-02-07T03:07:56.121Z,-6.90
2023-02-07T03:10:35.184Z,-6.73
2023-02-07T03:13:14.535Z,-6.65
2023-02-07T03:15:56.111Z,-6.76
2023-02-07T03:18:31.781Z,-6.80
2023-02-07T03:21:06.482Z,-6.73
2023-02-07T03:23:40.869Z,-6.78
2023-02-07T03:26:12.621Z,-6.75
2023-02-07T03:28:45.427Z,-6.69
2023-02-07T03:31:20.925Z,-6.69
2023-02-07T03:33:56.032Z,-6.84
2023-02-07T03:36:30.688Z,-6.82
2023-02-07T03:39:03.144Z,-6.79
2023-02-07T03:41:41.394Z,-6.61
2023-02-07T03:44:14.033Z,-6.60
2023-02-07T03:46:45.033Z,-6.56
2023-02-07T03:49:18.394Z,-6.49
2023-02-07T03:51:49.071Z,-6.54
2023-02-07T03:54:22.294Z,-6.44
2023-02-07T03:56:52.893Z,-6.58
2023-02-07T03:59:23.378Z,-6.68
2023-02-07T04:01:53.951Z,-6.58
2023-02-07T04:04:24.518Z,-6.34
2023-02-07T04:06:55.098Z,-6.23
2023-02-07T04:09:27.993Z,-6.19
2023-02-07T04:11:58.779Z,-6.59
2023-02-07T04:14:29.638Z,-6.54
2023-02-07T04:17:00.207Z,-6.36
2023-02-07T04:19:30.692Z,-6.30
2023-02-07T04:22:01.194Z,-6.22
2023-02-07T04:24:33.770Z,-6.26
2023-02-07T04:27:04.261Z,-6.37
2023-02-07T04:29:34.688Z,-6.49
2023-02-07T04:32:05.301Z,-6.55
2023-02-07T04:34:36.091Z,-6.45
2023-02-07T04:37:06.753Z,-6.37
2023-02-07T04:39:39.013Z,-6.75
2023-02-07T04:42:11.004Z,-6.35
2023-02-07T04:45:25.585Z,-6.34
2023-02-07T04:47:57.510Z,-7.14
2023-02-07T04:50:28.177Z,-6.46
2023-02-07T04:52:58.731Z,-6.66
2023-02-07T04:55:30.978Z,-6.72
2023-02-07T04:58:01.504Z,-6.77
2023-02-07T05:00:32.065Z,-6.80
2023-02-07T05:03:02.852Z,-6.77
2023-02-07T05:05:33.333Z,-6.75
2023-02-07T05:08:06.622Z,-6.81
2023-02-07T05:10:38.734Z,-6.82
2023-02-07T05:13:09.887Z,-6.75
2023-02-07T05:15:40.966Z,-6.82
2023-02-07T05:18:11.660Z,-6.77
2023-02-07T05:20:42.134Z,-6.79
2023-02-07T05:23:13.564Z,-6.87
2023-02-07T05:25:46.685Z,-6.89
2023-02-07T05:28:17.419Z,-6.82
2023-02-07T05:30:48.115Z,-6.85
2023-02-07T05:33:20.314Z,-7.01
2023-02-07T05:35:50.897Z,-6.88
2023-02-07T05:38:22.541Z,-6.89
2023-02-07T05:40:54.754Z,-6.87
2023-02-07T05:43:25.916Z,-6.99
2023-02-07T05:45:56.486Z,-7.28
2023-02-07T05:48:26.990Z,-7.19
2023-02-07T05:50:57.532Z,-7.61
2023-02-07T05:53:28.043Z,-7.60
2023-02-07T05:56:00.098Z,-8.05
2023-02-07T05:58:30.801Z,-7.90
2023-02-07T06:01:01.589Z,-8.05
2023-02-07T06:03:32.228Z,-8.11
2023-02-07T06:06:02.897Z,-8.27
2023-02-07T06:08:36.116Z,-8.37
2023-02-07T06:11:08.495Z,-8.51
2023-02-07T06:13:40.268Z,-8.69
2023-02-07T06:16:11.546Z,-8.66
2023-02-07T06:18:42.215Z,-8.77
2023-02-07T06:21:12.870Z,-8.77
2023-02-07T06:23:43.424Z,-8.80
2023-02-07T06:26:16.305Z,-8.80
2023-02-07T06:28:47.047Z,-8.82
2023-02-07T06:31:17.779Z,-8.71
2023-02-07T06:33:48.352Z,-8.62
2023-02-07T06:36:19.012Z,-8.54
2023-02-07T06:38:50.190Z,-8.53
2023-02-07T06:41:22.363Z,-8.50
2023-02-07T06:43:53.277Z,-8.50
2023-02-07T06:46:23.919Z,-8.43
2023-02-07T06:48:54.483Z,-8.42
2023-02-07T06:51:25.084Z,-8.47
2023-02-07T06:53:55.847Z,-8.59
2023-02-07T06:56:28.621Z,-8.54
2023-02-07T06:58:59.193Z,-8.56
2023-02-07T07:01:30.185Z,-8.72
2023-02-07T07:04:01.410Z,-8.77
2023-02-07T07:06:31.825Z,-8.79
2023-02-07T07:09:02.456Z,-8.94
2023-02-07T07:11:34.847Z,-8.98
2023-02-07T07:14:05.605Z,-8.95
2023-02-07T07:16:36.230Z,-9.07
2023-02-07T07:19:07.557Z,-9.13
2023-02-07T07:21:38.430Z,-9.32
2023-02-07T07:24:09.668Z,-9.48
2023-02-07T07:26:49.915Z,-9.67
2023-02-07T07:29:20.990Z,-10.01
2023-02-07T07:31:51.850Z,-10.19
2023-02-07T07:34:22.412Z,-10.40
2023-02-07T07:36:54.701Z,-10.67
2023-02-07T07:39:25.731Z,-11.01
2023-02-07T07:41:57.916Z,-11.37
2023-02-07T07:44:28.442Z,-11.78
2023-02-07T07:46:59.014Z,-12.01
2023-02-07T07:49:29.671Z,-12.19
2023-02-07T07:52:00.249Z,-12.29
2023-02-07T07:54:31.124Z,-12.45
2023-02-07T07:57:03.809Z,-12.69
2023-02-07T07:59:34.749Z,-12.62
2023-02-07T08:02:05.713Z,-12.60
2023-02-07T08:04:39.583Z,-12.60
2023-02-07T08:07:17.822Z,-12.44
2023-02-07T08:09:54.064Z,-12.44
2023-02-07T08:12:26.466Z,-12.38
2023-02-07T08:14:59.693Z,-12.88
2023-02-07T08:17:35.116Z,-12.63
2023-02-07T08:20:06.855Z,-12.52
2023-02-07T08:22:44.268Z,-12.53
2023-02-07T08:25:15.366Z,-12.71
2023-02-07T08:27:47.755Z,-12.90
2023-02-07T08:30:22.196Z,-13.12
2023-02-07T08:32:54.645Z,-13.72
2023-02-07T08:35:50.040Z,-13.48
2023-02-07T08:38:41.885Z,-13.79
2023-02-07T08:41:12.441Z,-13.93
2023-02-07T08:43:47.452Z,-14.27
2023-02-07T08:46:18.054Z,-14.05
2023-02-07T08:48:49.194Z,-14.04
2023-02-07T08:51:20.170Z,-14.05
2023-02-07T08:53:51.236Z,-14.32
2023-02-07T08:56:52.562Z,-13.80
2023-02-07T08:59:24.980Z,-13.79
2023-02-07T09:01:55.631Z,-13.86
2023-02-07T09:04:26.204Z,-13.88
2023-02-07T09:06:58.980Z,-13.93
2023-02-07T09:09:29.468Z,-13.92
2023-02-07T09:12:02.203Z,-13.99
2023-02-07T09:14:34.370Z,-14.13
2023-02-07T09:17:05.018Z,-14.17
2023-02-07T09:19:36.844Z,-14.36
2023-02-07T09:22:07.717Z,-14.39
2023-02-07T09:24:38.658Z,-14.62
2023-02-07T09:27:09.254Z,-15.29
2023-02-07T09:29:41.746Z,-14.63
2023-02-07T09:32:15.334Z,-14.70
2023-02-07T09:34:46.101Z,-14.84
2023-02-07T09:37:16.736Z,-14.89
2023-02-07T09:39:50.131Z,-14.94
2023-02-07T09:42:30.752Z,-14.91
2023-02-07T09:45:06.239Z,-15.15
2023-02-07T09:47:41.375Z,-15.06
2023-02-07T09:50:20.272Z,-15.11
2023-02-07T09:52:55.799Z,-15.58
2023-02-07T09:55:30.312Z,-15.25
2023-02-07T09:58:06.418Z,-16.12
2023-02-07T10:00:43.555Z,-15.97
2023-02-07T10:03:18.930Z,-16.52
2023-02-07T10:05:57.190Z,-15.99
2023-02-07T10:08:39.782Z,-15.78
2023-02-07T10:11:24.507Z,-15.79
2023-02-07T10:14:13.079Z,-16.06
2023-02-07T10:17:06.257Z,-16.09
2023-02-07T10:19:49.402Z,-16.23
2023-02-07T10:22:28.294Z,-16.28
2023-02-07T10:25:14.498Z,-16.58
2023-02-07T10:27:57.843Z,-16.21
2023-02-07T10:30:31.790Z,-16.26
2023-02-07T10:33:11.539Z,-16.38
2023-02-07T10:35:53.616Z,-16.29
2023-02-07T10:38:52.163Z,-16.29
2023-02-07T10:41:36.720Z,-16.41
2023-02-07T10:44:10.905Z,-16.58
2023-02-07T10:46:43.824Z,-16.87
2023-02-07T10:49:26.620Z,-16.81
2023-02-07T10:52:00.954Z,-16.83
2023-02-07T10:54:32.762Z,-17.05
2023-02-07T10:57:07.095Z,-16.58
2023-02-07T10:59:47.074Z,-16.40
2023-02-07T11:02:38.449Z,-15.98
2023-02-07T11:09:48.148Z,-15.98
2023-02-07T11:12:46.249Z,-16.21
2023-02-07T11:15:21.810Z,-16.32
2023-02-07T11:17:54.963Z,-17.15
2023-02-07T11:20:33.119Z,-16.61
2023-02-07T11:23:07.252Z,-16.67
2023-02-07T11:25:41.767Z,-16.84
2023-02-07T11:28:23.569Z,-16.97
2023-02-07T11:30:59.501Z,-17.41
2023-02-07T11:33:33.689Z,-16.73
2023-02-07T11:36:24.062Z,-17.22
2023-02-07T11:38:58.676Z,-17.16
2023-02-07T11:41:32.127Z,-16.86
2023-02-07T11:44:07.361Z,-16.88
2023-02-07T11:46:42.567Z,-16.71
2023-02-07T11:49:28.081Z,-16.57
2023-02-07T11:52:02.826Z,-17.09
2023-02-07T11:54:35.702Z,-16.39
2023-02-07T11:57:10.144Z,-16.28
2023-02-07T11:59:51.661Z,-16.42
2023-02-07T12:02:26.768Z,-16.26
2023-02-07T12:04:58.531Z,-16.34
2023-02-07T12:07:35.044Z,-16.56
2023-02-07T12:10:14.405Z,-16.78
2023-02-07T12:12:49.934Z,-16.94
2023-02-07T12:15:26.736Z,-16.98
2023-02-07T12:18:08.537Z,-16.79
2023-02-07T12:20:45.190Z,-16.64
2023-02-07T12:23:42.711Z,-16.63
2023-02-07T12:26:24.603Z,-16.54
2023-02-07T12:29:13.972Z,-17.04
2023-02-07T12:31:57.873Z,-16.54
2023-02-07T12:34:35.904Z,-16.75
2023-02-07T12:37:16.657Z,-16.65
2023-02-07T12:39:53.693Z,-16.43
2023-02-07T12:42:34.707Z,-16.17
2023-02-07T12:45:07.977Z,-16.35
2023-02-07T12:47:52.667Z,-15.66
2023-02-07T12:50:36.268Z,-15.44
2023-02-07T12:53:29.834Z,-15.35
2023-02-07T12:56:16.107Z,-15.26
2023-02-07T12:58:58.140Z,-15.09
2023-02-07T13:01:41.557Z,-15.02
2023-02-07T13:04:42.368Z,-14.69
2023-02-07T13:07:27.531Z,-14.61
2023-02-07T13:10:07.068Z,-14.62
2023-02-07T13:12:48.552Z,-14.44
2023-02-07T13:15:31.212Z,-14.34
2023-02-07T13:18:12.162Z,-14.47
2023-02-07T13:21:09.695Z,-14.26
2023-02-07T13:23:45.011Z,-14.19
2023-02-07T13:26:21.486Z,-14.41
2023-02-07T13:28:58.107Z,-13.78
2023-02-07T13:31:40.682Z,-13.51
2023-02-07T13:34:20.240Z,-13.15
2023-02-07T13:36:55.315Z,-12.94
2023-02-07T13:39:41.531Z,-13.07
2023-02-07T13:42:27.649Z,-12.85
2023-02-07T13:45:05.613Z,-12.71
2023-02-07T13:47:57.283Z,-12.54
2023-02-07T13:50:43.009Z,-12.53
2023-02-07T13:53:34.192Z,-12.52
2023-02-07T13:56:07.026Z,-12.62
2023-02-07T13:59:14.326Z,-12.32
2023-02-07T14:01:57.355Z,-12.65
2023-02-07T14:04:48.684Z,-12.18
2023-02-07T14:07:25.902Z,-11.95
2023-02-07T14:09:59.990Z,-11.82
2023-02-07T14:12:34.068Z,-11.73
2023-02-07T14:15:42.506Z,-11.73
2023-02-07T14:18:46.829Z,-11.74
2023-02-07T14:21:42.629Z,-11.65
2023-02-07T14:24:35.322Z,-11.44
2023-02-07T14:27:26.044Z,-11.30
2023-02-07T14:29:59.794Z,-11.27
2023-02-07T14:32:43.118Z,-11.49
2023-02-07T14:35:49.628Z,-11.62
2023-02-07T14:38:35.997Z,-11.74
2023-02-07T14:41:11.833Z,-11.87
2023-02-07T14:44:08.060Z,-11.89
2023-02-07T14:46:44.620Z,-11.97
2023-02-07T14:49:22.867Z,-12.13
2023-02-07T14:51:56.519Z,-12.13
2023-02-07T14:54:32.887Z,-12.02
2023-02-07T14:57:13.922Z,-11.93
2023-02-07T15:00:01.550Z,-11.93
2023-02-07T15:02:39.345Z,-11.84
2023-02-07T15:05:26.951Z,-11.84
2023-02-07T15:08:09.205Z,-12.06
2023-02-07T15:10:43.612Z,-11.95
2023-02-07T15:13:24.644Z,-12.07
2023-02-07T15:16:01.159Z,-12.03
2023-02-07T15:18:39.791Z,-12.07
2023-02-07T15:21:16.208Z,-12.34
2023-02-07T15:23:52.943Z,-13.01
2023-02-07T15:26:24.690Z,-12.52
2023-02-07T15:29:04.580Z,-12.67
2023-02-07T15:31:42.640Z,-12.74
2023-02-07T15:34:19.013Z,-12.89
2023-02-07T15:36:52.517Z,-13.62
2023-02-07T15:39:26.182Z,-14.06
2023-02-07T15:41:59.093Z,-13.64
2023-02-07T15:44:31.326Z,-13.96
2023-02-07T15:47:08.706Z,-14.20
2023-02-07T15:49:42.154Z,-14.42
2023-02-07T15:52:19.535Z,-14.44
2023-02-07T15:54:53.951Z,-14.51
2023-02-07T15:57:29.545Z,-14.69
2023-02-07T16:00:06.478Z,-14.79
2023-02-07T16:02:43.922Z,-15.01
2023-02-07T16:05:23.327Z,-15.01
2023-02-07T16:07:59.198Z,-15.06
2023-02-07T16:10:40.493Z,-15.46
2023-02-07T16:13:24.858Z,-15.54
2023-02-07T16:15:58.573Z,-15.75
2023-02-07T16:18:42.928Z,-16.22
2023-02-07T16:21:17.476Z,-16.28
2023-02-07T16:23:49.960Z,-16.60
2023-02-07T16:26:24.677Z,-17.03
2023-02-07T16:28:56.236Z,-16.78
2023-02-07T16:31:27.935Z,-16.87
2023-02-07T16:34:01.638Z,-17.03
2023-02-07T16:36:33.530Z,-17.20
2023-02-07T16:39:04.698Z,-17.21
2023-02-07T16:41:38.042Z,-17.33
2023-02-07T16:44:12.070Z,-17.49
2023-02-07T16:46:43.573Z,-17.37
2023-02-07T16:49:22.079Z,-17.32
2023-02-07T16:51:56.514Z,-17.32
2023-02-07T16:54:28.154Z,-17.68
2023-02-07T16:57:04.624Z,-17.43
2023-02-07T16:59:36.238Z,-17.52
2023-02-07T17:02:14.358Z,-17.90
2023-02-07T17:04:47.570Z,-18.77
2023-02-07T17:07:19.191Z,-18.31
2023-02-07T17:09:51.480Z,-18.17
2023-02-07T17:12:23.014Z,-18.24
2023-02-07T17:14:54.486Z,-18.41
2023-02-07T17:17:25.967Z,-18.86
2023-02-07T17:19:59.232Z,-18.82
2023-02-07T17:22:30.753Z,-18.67
2023-02-07T17:25:02.271Z,-18.80
2023-02-07T17:27:33.882Z,-18.65
2023-02-07T17:30:08.030Z,-18.73
2023-02-07T17:32:39.601Z,-18.84
2023-02-07T17:35:13.343Z,-18.98
2023-02-07T17:37:45.320Z,-19.04
2023-02-07T17:40:29.144Z,-19.04
2023-02-07T17:43:01.186Z,-18.99
2023-02-07T17:45:47.836Z,-19.23
2023-02-07T17:48:18.410Z,-19.05
2023-02-07T17:50:50.794Z,-19.20
2023-02-07T17:53:22.387Z,-19.41
2023-02-07T17:55:53.558Z,-20.12
2023-02-07T17:58:27.032Z,-19.78
2023-02-07T18:00:57.639Z,-19.64
2023-02-07T18:03:28.451Z,-19.62
2023-02-07T18:06:00.647Z,-19.47
2023-02-07T18:08:31.212Z,-19.46
2023-02-07T18:11:05.113Z,-19.82
2023-02-07T18:13:38.537Z,-19.47
2023-02-07T18:16:12.247Z,-19.45
2023-02-07T18:18:42.982Z,-19.39
2023-02-07T18:21:15.643Z,-19.75
2023-02-07T18:23:48.170Z,-19.90
2023-02-07T18:26:22.120Z,-20.17
2023-02-07T18:28:53.195Z,-19.65
2023-02-07T18:31:26.822Z,-19.55
2023-02-07T18:33:57.565Z,-19.53
2023-02-07T18:36:34.999Z,-19.50
2023-02-07T18:39:06.111Z,-19.76
2023-02-07T18:41:36.793Z,-19.20
2023-02-07T18:44:09.822Z,-19.00
2023-02-07T18:46:41.619Z,-19.01
2023-02-07T18:49:14.988Z,-19.06
2023-02-07T18:51:48.808Z,-20.20
2023-02-07T18:54:21.925Z,-19.47
2023-02-07T18:56:54.447Z,-19.36
2023-02-07T18:59:26.350Z,-19.96
2023-02-07T19:01:57.118Z,-19.42
2023-02-07T19:04:27.744Z,-19.40
2023-02-07T19:07:00.612Z,-19.23
2023-02-07T19:09:31.175Z,-19.00
2023-02-07T19:12:04.659Z,-18.94
2023-02-07T19:14:36.457Z,-18.96
2023-02-07T19:17:07.788Z,-19.18
2023-02-07T19:19:40.260Z,-19.24
2023-02-07T19:22:21.545Z,-19.22
2023-02-07T19:24:59.601Z,-18.98
2023-02-07T19:27:34.059Z,-19.04
2023-02-07T19:30:04.666Z,-19.04
2023-02-07T19:32:38.305Z,-19.18
2023-02-07T19:35:13.286Z,-19.26
2023-02-07T19:37:45.664Z,-19.38
2023-02-07T19:40:19.193Z,-19.48
2023-02-07T19:42:49.898Z,-19.48
2023-02-07T19:45:22.878Z,-19.37
2023-02-07T19:47:53.440Z,-19.27
2023-02-07T19:50:24.751Z,-19.29
2023-02-07T19:52:57.210Z,-19.18
2023-02-07T19:55:30.750Z,-19.37
2023-02-07T19:58:01.657Z,-19.55
2023-02-07T20:00:32.360Z,-19.56
2023-02-07T20:03:03.681Z,-19.45
2023-02-07T20:05:34.253Z,-19.41
2023-02-07T20:08:06.713Z,-19.45
2023-02-07T20:10:37.824Z,-19.84
2023-02-07T20:13:08.463Z,-19.63
2023-02-07T20:15:48.685Z,-19.53
2023-02-07T20:18:19.245Z,-19.43
2023-02-07T20:20:49.925Z,-19.87
2023-02-07T20:23:25.248Z,-19.09
2023-02-07T20:25:55.723Z,-19.00
2023-02-07T20:28:32.007Z,-19.00
2023-02-07T20:31:02.807Z,-19.17
2023-02-07T20:33:34.043Z,-19.63
2023-02-07T20:36:04.798Z,-19.80
2023-02-07T20:38:38.680Z,-19.76
2023-02-07T20:41:16.014Z,-19.86
2023-02-07T20:43:46.461Z,-19.93
2023-02-07T20:46:18.088Z,-20.04
2023-02-07T20:48:48.759Z,-20.00
2023-02-07T20:51:20.698Z,-19.80
2023-02-07T20:53:52.943Z,-19.74
2023-02-07T20:56:23.413Z,-19.68
2023-02-07T20:58:55.071Z,-19.58
2023-02-07T21:01:27.393Z,-19.78
2023-02-07T21:04:00.292Z,-19.76
2023-02-07T21:06:31.776Z,-19.90
2023-02-07T21:09:05.808Z,-19.97
2023-02-07T21:11:38.147Z,-20.64
2023-02-07T21:14:10.475Z,-20.19
2023-02-07T21:16:41.840Z,-19.98
2023-02-07T21:19:12.652Z,-20.15
2023-02-07T21:21:43.553Z,-20.13
2023-02-07T21:24:15.776Z,-20.08
2023-02-07T21:26:46.415Z,-20.53
2023-02-07T21:29:17.088Z,-19.98
2023-02-07T21:31:47.766Z,-19.95
2023-02-07T21:34:21.821Z,-19.87
2023-02-07T21:36:53.317Z,-19.87
2023-02-07T21:39:25.975Z,-19.76
2023-02-07T21:41:56.533Z,-19.81
2023-02-07T21:44:27.056Z,-19.78
2023-02-07T21:46:58.146Z,-19.87
2023-02-07T21:49:28.703Z,-19.81
2023-02-07T21:51:59.175Z,-19.87
2023-02-07T21:54:31.188Z,-19.52
2023-02-07T21:57:01.721Z,-19.29
2023-02-07T21:59:32.349Z,-19.15
2023-02-07T22:02:03.013Z,-18.92
2023-02-07T22:04:33.634Z,-18.79
2023-02-07T22:07:04.176Z,-18.59
2023-02-07T22:09:36.365Z,-18.34
2023-02-07T22:12:06.986Z,-19.08
2023-02-07T22:14:37.452Z,-17.95
2023-02-07T22:28:51.021Z,-17.28
2023-02-07T22:31:23.219Z,-17.08
2023-02-07T22:33:57.721Z,-17.10
2023-02-07T22:36:30.763Z,-16.91
2023-02-07T22:39:02.479Z,-16.88
2023-02-07T22:41:33.330Z,-16.78
2023-02-07T22:44:05.884Z,-16.75
2023-02-07T22:46:36.419Z,-16.71
2023-02-07T22:49:06.847Z,-16.64
2023-02-07T22:51:38.974Z,-16.69
2023-02-07T22:54:12.812Z,-16.69
2023-02-07T22:56:45.007Z,-17.03
2023-02-07T22:59:18.060Z,-16.61
2023-02-07T23:01:49.026Z,-16.47
2023-02-07T23:04:20.450Z,-16.27
2023-02-07T23:06:51.217Z,-16.21
2023-02-07T23:09:21.684Z,-16.04
2023-02-07T23:11:52.937Z,-16.13
2023-02-07T23:14:25.720Z,-15.85
2023-02-07T23:16:56.235Z,-15.74
2023-02-07T23:19:26.697Z,-15.59
2023-02-07T23:22:00.252Z,-15.92
2023-02-07T23:24:31.033Z,-15.15
2023-02-07T23:27:01.675Z,-14.72
2023-02-07T23:29:33.729Z,-14.46
2023-02-07T23:32:04.359Z,-14.29
2023-02-07T23:34:34.969Z,-14.00
2023-02-07T23:37:05.462Z,-13.78
2023-02-07T23:39:36.159Z,-13.55
2023-02-07T23:42:11.153Z,-13.40
2023-02-07T23:44:54.340Z,-13.25
2023-02-07T23:47:25.899Z,-13.10
2023-02-07T23:49:56.402Z,-12.70
2023-02-07T23:52:29.404Z,-12.50
2023-02-07T23:55:00.043Z,-12.55
2023-02-07T23:57:30.668Z,-12.49
